sensor_id;sensor_type;location;lat;lon;timestamp;temperature;humidity
56374;DHT22;58212;47.034;7.376;2022-07-25T00:00:09;21.10;99.90
56374;DHT22;58212;47.034;7.376;2022-07-25T00:02:36;21.10;99.90
56374;DHT22;58212;47.034;7.376;2022-07-25T00:05:04;21.00;99.90
56374;DHT22;58212;47.034;7.376;2022-07-25T00:07:31;21.10;99.90
56374;DHT22;58212;47.034;7.376;2022-07-25T00:10:00;21.20;99.90
56374;DHT22;58212;47.034;7.376;2022-07-25T00:12:27;21.10;99.90
56374;DHT22;58212;47.034;7.376;2022-07-25T00:14:54;21.20;99.90
56374;DHT22;58212;47.034;7.376;2022-07-25T00:17:21;21.20;99.90
56374;DHT22;58212;47.034;7.376;2022-07-25T00:20:03;21.30;99.90
56374;DHT22;58212;47.034;7.376;2022-07-25T00:22:32;21.30;99.90
56374;DHT22;58212;47.034;7.376;2022-07-25T00:25:01;21.20;99.90
56374;DHT22;58212;47.034;7.376;2022-07-25T00:27:28;21.10;99.90
56374;DHT22;58212;47.034;7.376;2022-07-25T00:29:58;21.10;99.90
56374;DHT22;58212;47.034;7.376;2022-07-25T00:32:25;21.10;99.90
56374;DHT22;58212;47.034;7.376;2022-07-25T00:34:55;21.00;99.90
56374;DHT22;58212;47.034;7.376;2022-07-25T00:37:22;21.10;99.90
56374;DHT22;58212;47.034;7.376;2022-07-25T00:39:51;21.10;99.90
56374;DHT22;58212;47.034;7.376;2022-07-25T00:42:21;21.00;99.90
56374;DHT22;58212;47.034;7.376;2022-07-25T00:44:49;21.00;99.90
56374;DHT22;58212;47.034;7.376;2022-07-25T00:47:19;20.90;99.90
56374;DHT22;58212;47.034;7.376;2022-07-25T00:49:46;20.80;99.90
56374;DHT22;58212;47.034;7.376;2022-07-25T00:52:13;20.70;99.90
56374;DHT22;58212;47.034;7.376;2022-07-25T00:54:40;20.50;99.90
56374;DHT22;58212;47.034;7.376;2022-07-25T00:57:07;20.40;99.90
56374;DHT22;58212;47.034;7.376;2022-07-25T00:59:36;20.50;99.90
56374;DHT22;58212;47.034;7.376;2022-07-25T01:02:03;20.40;99.90
56374;DHT22;58212;47.034;7.376;2022-07-25T01:04:30;20.40;99.90
56374;DHT22;58212;47.034;7.376;2022-07-25T01:06:58;20.30;99.90
56374;DHT22;58212;47.034;7.376;2022-07-25T01:09:25;20.40;99.90
56374;DHT22;58212;47.034;7.376;2022-07-25T01:11:55;20.40;99.90
56374;DHT22;58212;47.034;7.376;2022-07-25T01:14:22;20.30;99.90
56374;DHT22;58212;47.034;7.376;2022-07-25T01:16:50;20.20;99.90
56374;DHT22;58212;47.034;7.376;2022-07-25T01:19:20;20.20;99.90
56374;DHT22;58212;47.034;7.376;2022-07-25T01:21:49;20.20;99.90
56374;DHT22;58212;47.034;7.376;2022-07-25T01:24:16;20.20;99.90
56374;DHT22;58212;47.034;7.376;2022-07-25T01:26:45;20.10;99.90
56374;DHT22;58212;47.034;7.376;2022-07-25T01:29:13;20.10;99.90
56374;DHT22;58212;47.034;7.376;2022-07-25T01:31:42;20.00;99.90
56374;DHT22;58212;47.034;7.376;2022-07-25T01:34:11;20.00;99.90
56374;DHT22;58212;47.034;7.376;2022-07-25T01:36:41;19.90;99.90
56374;DHT22;58212;47.034;7.376;2022-07-25T01:39:09;20.00;99.90
56374;DHT22;58212;47.034;7.376;2022-07-25T01:41:36;20.00;99.90
56374;DHT22;58212;47.034;7.376;2022-07-25T01:44:04;19.90;99.90
56374;DHT22;58212;47.034;7.376;2022-07-25T01:46:31;19.90;99.90
56374;DHT22;58212;47.034;7.376;2022-07-25T01:48:58;19.90;99.90
56374;DHT22;58212;47.034;7.376;2022-07-25T01:51:28;19.90;99.90
56374;DHT22;58212;47.034;7.376;2022-07-25T01:53:55;20.00;99.90
56374;DHT22;58212;47.034;7.376;2022-07-25T01:56:26;20.00;99.90
56374;DHT22;58212;47.034;7.376;2022-07-25T01:58:53;20.00;99.90
56374;DHT22;58212;47.034;7.376;2022-07-25T02:01:20;20.10;99.90
56374;DHT22;58212;47.034;7.376;2022-07-25T02:03:47;20.00;99.90
56374;DHT22;58212;47.034;7.376;2022-07-25T02:06:18;19.90;99.90
56374;DHT22;58212;47.034;7.376;2022-07-25T02:08:45;19.90;99.90
56374;DHT22;58212;47.034;7.376;2022-07-25T02:11:15;20.00;99.90
56374;DHT22;58212;47.034;7.376;2022-07-25T02:13:43;20.00;99.90
56374;DHT22;58212;47.034;7.376;2022-07-25T02:16:10;20.00;99.90
56374;DHT22;58212;47.034;7.376;2022-07-25T02:18:38;20.00;99.90
56374;DHT22;58212;47.034;7.376;2022-07-25T02:21:05;19.90;99.90
56374;DHT22;58212;47.034;7.376;2022-07-25T02:23:34;20.00;99.90
56374;DHT22;58212;47.034;7.376;2022-07-25T02:26:02;19.90;99.90
56374;DHT22;58212;47.034;7.376;2022-07-25T02:28:29;19.90;99.90
56374;DHT22;58212;47.034;7.376;2022-07-25T02:30:58;19.90;99.90
56374;DHT22;58212;47.034;7.376;2022-07-25T02:33:25;19.90;99.90
56374;DHT22;58212;47.034;7.376;2022-07-25T02:35:52;19.90;99.90
56374;DHT22;58212;47.034;7.376;2022-07-25T02:38:20;19.90;99.90
56374;DHT22;58212;47.034;7.376;2022-07-25T02:40:47;19.80;99.90
56374;DHT22;58212;47.034;7.376;2022-07-25T02:43:18;19.90;99.90
56374;DHT22;58212;47.034;7.376;2022-07-25T02:45:46;19.80;99.90
56374;DHT22;58212;47.034;7.376;2022-07-25T02:48:14;19.90;99.90
56374;DHT22;58212;47.034;7.376;2022-07-25T02:50:41;19.90;99.90
56374;DHT22;58212;47.034;7.376;2022-07-25T02:53:08;19.90;99.90
56374;DHT22;58212;47.034;7.376;2022-07-25T02:55:35;19.90;99.90
56374;DHT22;58212;47.034;7.376;2022-07-25T02:58:04;19.90;99.90
56374;DHT22;58212;47.034;7.376;2022-07-25T03:00:32;19.80;99.90
56374;DHT22;58212;47.034;7.376;2022-07-25T03:02:59;19.70;99.90
56374;DHT22;58212;47.034;7.376;2022-07-25T03:05:30;19.70;99.90
56374;DHT22;58212;47.034;7.376;2022-07-25T03:07:57;19.50;99.90
56374;DHT22;58212;47.034;7.376;2022-07-25T03:10:24;19.50;99.90
56374;DHT22;58212;47.034;7.376;2022-07-25T03:12:51;19.40;99.90
56374;DHT22;58212;47.034;7.376;2022-07-25T03:15:18;19.40;99.90
56374;DHT22;58212;47.034;7.376;2022-07-25T03:17:45;19.50;99.90
56374;DHT22;58212;47.034;7.376;2022-07-25T03:20:15;19.60;99.90
56374;DHT22;58212;47.034;7.376;2022-07-25T03:22:44;19.50;99.90
56374;DHT22;58212;47.034;7.376;2022-07-25T03:25:13;19.50;99.90
56374;DHT22;58212;47.034;7.376;2022-07-25T03:27:42;19.50;99.90
56374;DHT22;58212;47.034;7.376;2022-07-25T03:30:10;19.40;99.90
56374;DHT22;58212;47.034;7.376;2022-07-25T03:32:38;19.30;99.90
56374;DHT22;58212;47.034;7.376;2022-07-25T03:35:06;19.30;99.90
56374;DHT22;58212;47.034;7.376;2022-07-25T03:37:33;19.30;99.90
56374;DHT22;58212;47.034;7.376;2022-07-25T03:40:03;19.20;99.90
56374;DHT22;58212;47.034;7.376;2022-07-25T03:42:33;19.20;99.90
56374;DHT22;58212;47.034;7.376;2022-07-25T03:45:00;19.20;99.90
56374;DHT22;58212;47.034;7.376;2022-07-25T03:47:27;19.20;99.90
56374;DHT22;58212;47.034;7.376;2022-07-25T03:49:54;19.20;99.90
56374;DHT22;58212;47.034;7.376;2022-07-25T03:52:23;19.20;99.90
56374;DHT22;58212;47.034;7.376;2022-07-25T03:54:50;19.30;99.90
56374;DHT22;58212;47.034;7.376;2022-07-25T03:57:18;19.20;99.90
56374;DHT22;58212;47.034;7.376;2022-07-25T03:59:45;19.20;99.90
56374;DHT22;58212;47.034;7.376;2022-07-25T04:02:12;19.10;99.90
56374;DHT22;58212;47.034;7.376;2022-07-25T04:04:39;19.20;99.90
56374;DHT22;58212;47.034;7.376;2022-07-25T04:07:06;19.20;99.90
56374;DHT22;58212;47.034;7.376;2022-07-25T04:09:33;19.20;99.90
56374;DHT22;58212;47.034;7.376;2022-07-25T04:12:03;19.20;99.90
56374;DHT22;58212;47.034;7.376;2022-07-25T04:14:34;19.20;99.90
56374;DHT22;58212;47.034;7.376;2022-07-25T04:17:01;19.20;99.90
56374;DHT22;58212;47.034;7.376;2022-07-25T04:19:28;19.10;99.90
56374;DHT22;58212;47.034;7.376;2022-07-25T04:21:55;19.10;99.90
56374;DHT22;58212;47.034;7.376;2022-07-25T04:24:24;19.10;99.90
56374;DHT22;58212;47.034;7.376;2022-07-25T04:26:51;19.20;99.90
56374;DHT22;58212;47.034;7.376;2022-07-25T04:29:18;19.20;99.90
56374;DHT22;58212;47.034;7.376;2022-07-25T04:31:47;19.30;99.90
56374;DHT22;58212;47.034;7.376;2022-07-25T04:34:14;19.30;99.90
56374;DHT22;58212;47.034;7.376;2022-07-25T04:36:41;19.40;99.90
56374;DHT22;58212;47.034;7.376;2022-07-25T04:39:08;19.40;99.90
56374;DHT22;58212;47.034;7.376;2022-07-25T04:41:35;19.40;99.90
56374;DHT22;58212;47.034;7.376;2022-07-25T04:44:04;19.40;99.90
56374;DHT22;58212;47.034;7.376;2022-07-25T04:46:33;19.40;99.90
56374;DHT22;58212;47.034;7.376;2022-07-25T04:49:03;19.50;99.90
56374;DHT22;58212;47.034;7.376;2022-07-25T04:51:30;19.40;99.90
56374;DHT22;58212;47.034;7.376;2022-07-25T04:54:00;19.60;99.90
56374;DHT22;58212;47.034;7.376;2022-07-25T04:56:27;19.60;99.90
56374;DHT22;58212;47.034;7.376;2022-07-25T04:58:54;19.70;99.90
56374;DHT22;58212;47.034;7.376;2022-07-25T05:01:21;19.70;99.90
56374;DHT22;58212;47.034;7.376;2022-07-25T05:03:48;19.80;99.90
56374;DHT22;58212;47.034;7.376;2022-07-25T05:06:17;19.90;99.90
56374;DHT22;58212;47.034;7.376;2022-07-25T05:08:44;20.00;99.90
56374;DHT22;58212;47.034;7.376;2022-07-25T05:11:11;20.00;99.90
56374;DHT22;58212;47.034;7.376;2022-07-25T05:13:41;20.20;99.90
56374;DHT22;58212;47.034;7.376;2022-07-25T05:16:10;22.10;99.90
56374;DHT22;58212;47.034;7.376;2022-07-25T05:18:40;24.60;99.90
56374;DHT22;58212;47.034;7.376;2022-07-25T05:21:10;26.00;99.90
56374;DHT22;58212;47.034;7.376;2022-07-25T05:23:39;26.60;99.90
56374;DHT22;58212;47.034;7.376;2022-07-25T05:26:08;27.10;99.90
56374;DHT22;58212;47.034;7.376;2022-07-25T05:28:35;27.60;99.90
56374;DHT22;58212;47.034;7.376;2022-07-25T05:31:04;27.90;99.90
56374;DHT22;58212;47.034;7.376;2022-07-25T05:33:33;28.10;99.90
56374;DHT22;58212;47.034;7.376;2022-07-25T05:36:00;28.40;99.90
56374;DHT22;58212;47.034;7.376;2022-07-25T05:38:28;28.70;99.90
56374;DHT22;58212;47.034;7.376;2022-07-25T05:40:57;29.10;99.90
56374;DHT22;58212;47.034;7.376;2022-07-25T05:43:26;29.20;99.90
56374;DHT22;58212;47.034;7.376;2022-07-25T05:45:59;29.10;99.90
56374;DHT22;58212;47.034;7.376;2022-07-25T05:48:26;29.20;99.90
56374;DHT22;58212;47.034;7.376;2022-07-25T05:50:53;29.00;99.90
56374;DHT22;58212;47.034;7.376;2022-07-25T05:53:21;29.20;99.90
56374;DHT22;58212;47.034;7.376;2022-07-25T05:55:48;29.30;99.90
56374;DHT22;58212;47.034;7.376;2022-07-25T05:58:19;29.70;99.90
56374;DHT22;58212;47.034;7.376;2022-07-25T06:00:46;29.70;99.90
56374;DHT22;58212;47.034;7.376;2022-07-25T06:03:13;29.60;99.90
56374;DHT22;58212;47.034;7.376;2022-07-25T06:05:40;29.50;99.90
56374;DHT22;58212;47.034;7.376;2022-07-25T06:08:07;29.70;99.90
56374;DHT22;58212;47.034;7.376;2022-07-25T06:10:34;29.20;99.90
56374;DHT22;58212;47.034;7.376;2022-07-25T06:13:01;29.10;99.90
56374;DHT22;58212;47.034;7.376;2022-07-25T06:15:32;27.20;99.90
56374;DHT22;58212;47.034;7.376;2022-07-25T06:18:01;25.90;99.90
56374;DHT22;58212;47.034;7.376;2022-07-25T06:20:28;25.50;99.90
56374;DHT22;58212;47.034;7.376;2022-07-25T06:22:55;25.40;99.90
56374;DHT22;58212;47.034;7.376;2022-07-25T06:25:23;25.50;99.90
56374;DHT22;58212;47.034;7.376;2022-07-25T06:27:50;25.50;99.90
56374;DHT22;58212;47.034;7.376;2022-07-25T06:30:17;25.50;99.90
56374;DHT22;58212;47.034;7.376;2022-07-25T06:32:46;25.50;99.90
56374;DHT22;58212;47.034;7.376;2022-07-25T06:35:13;25.20;99.90
56374;DHT22;58212;47.034;7.376;2022-07-25T06:37:40;25.20;99.90
56374;DHT22;58212;47.034;7.376;2022-07-25T06:40:08;24.90;99.90
56374;DHT22;58212;47.034;7.376;2022-07-25T06:42:37;24.70;99.90
56374;DHT22;58212;47.034;7.376;2022-07-25T06:45:05;24.90;99.90
56374;DHT22;58212;47.034;7.376;2022-07-25T06:47:34;24.60;99.90
56374;DHT22;58212;47.034;7.376;2022-07-25T06:50:04;24.60;99.90
56374;DHT22;58212;47.034;7.376;2022-07-25T06:52:34;24.50;99.90
56374;DHT22;58212;47.034;7.376;2022-07-25T06:55:07;24.50;99.90
56374;DHT22;58212;47.034;7.376;2022-07-25T06:57:35;24.60;99.90
56374;DHT22;58212;47.034;7.376;2022-07-25T07:00:05;24.70;99.90
56374;DHT22;58212;47.034;7.376;2022-07-25T07:02:34;24.80;99.90
56374;DHT22;58212;47.034;7.376;2022-07-25T07:05:03;25.20;99.90
56374;DHT22;58212;47.034;7.376;2022-07-25T07:07:33;25.40;99.90
56374;DHT22;58212;47.034;7.376;2022-07-25T07:10:00;25.60;99.90
56374;DHT22;58212;47.034;7.376;2022-07-25T07:12:29;26.10;99.90
56374;DHT22;58212;47.034;7.376;2022-07-25T07:14:56;25.80;99.90
56374;DHT22;58212;47.034;7.376;2022-07-25T07:17:26;26.50;99.90
56374;DHT22;58212;47.034;7.376;2022-07-25T07:19:53;26.70;99.90
56374;DHT22;58212;47.034;7.376;2022-07-25T07:22:21;26.30;99.90
56374;DHT22;58212;47.034;7.376;2022-07-25T07:24:49;26.70;99.90
56374;DHT22;58212;47.034;7.376;2022-07-25T07:27:18;26.40;99.90
56374;DHT22;58212;47.034;7.376;2022-07-25T07:29:49;26.60;99.90
56374;DHT22;58212;47.034;7.376;2022-07-25T07:32:16;26.80;99.90
56374;DHT22;58212;47.034;7.376;2022-07-25T07:34:45;26.90;99.90
56374;DHT22;58212;47.034;7.376;2022-07-25T07:37:15;27.40;99.90
56374;DHT22;58212;47.034;7.376;2022-07-25T07:39:43;27.50;99.90
56374;DHT22;58212;47.034;7.376;2022-07-25T07:42:10;27.70;99.90
56374;DHT22;58212;47.034;7.376;2022-07-25T07:44:38;27.80;99.90
56374;DHT22;58212;47.034;7.376;2022-07-25T07:47:05;27.50;99.90
56374;DHT22;58212;47.034;7.376;2022-07-25T07:49:32;27.40;99.90
56374;DHT22;58212;47.034;7.376;2022-07-25T07:52:00;27.30;99.90
56374;DHT22;58212;47.034;7.376;2022-07-25T07:54:28;27.40;99.90
56374;DHT22;58212;47.034;7.376;2022-07-25T07:57:16;27.80;99.90
56374;DHT22;58212;47.034;7.376;2022-07-25T07:59:44;28.10;99.90
56374;DHT22;58212;47.034;7.376;2022-07-25T08:02:11;28.00;99.90
56374;DHT22;58212;47.034;7.376;2022-07-25T08:04:39;28.20;99.90
56374;DHT22;58212;47.034;7.376;2022-07-25T08:07:10;28.20;99.90
56374;DHT22;58212;47.034;7.376;2022-07-25T08:09:37;28.00;99.90
56374;DHT22;58212;47.034;7.376;2022-07-25T08:12:08;28.10;99.90
56374;DHT22;58212;47.034;7.376;2022-07-25T08:14:37;28.40;99.90
56374;DHT22;58212;47.034;7.376;2022-07-25T08:17:04;28.20;99.90
56374;DHT22;58212;47.034;7.376;2022-07-25T08:19:32;28.60;99.90
56374;DHT22;58212;47.034;7.376;2022-07-25T08:21:59;28.70;99.90
56374;DHT22;58212;47.034;7.376;2022-07-25T08:24:26;28.60;99.90
56374;DHT22;58212;47.034;7.376;2022-07-25T08:26:55;28.60;99.90
56374;DHT22;58212;47.034;7.376;2022-07-25T08:29:25;28.50;99.90
56374;DHT22;58212;47.034;7.376;2022-07-25T08:31:54;28.50;99.90
56374;DHT22;58212;47.034;7.376;2022-07-25T08:34:21;28.60;99.90
56374;DHT22;58212;47.034;7.376;2022-07-25T08:36:51;28.90;99.90
56374;DHT22;58212;47.034;7.376;2022-07-25T08:39:18;29.20;99.90
56374;DHT22;58212;47.034;7.376;2022-07-25T08:41:48;29.00;99.90
56374;DHT22;58212;47.034;7.376;2022-07-25T08:44:16;29.00;99.90
56374;DHT22;58212;47.034;7.376;2022-07-25T08:46:46;29.00;99.90
56374;DHT22;58212;47.034;7.376;2022-07-25T08:49:15;28.80;99.90
56374;DHT22;58212;47.034;7.376;2022-07-25T08:51:43;28.60;99.90
56374;DHT22;58212;47.034;7.376;2022-07-25T08:54:12;28.90;99.90
56374;DHT22;58212;47.034;7.376;2022-07-25T08:56:39;28.70;99.90
56374;DHT22;58212;47.034;7.376;2022-07-25T08:59:09;28.80;99.90
56374;DHT22;58212;47.034;7.376;2022-07-25T09:01:38;29.20;99.90
56374;DHT22;58212;47.034;7.376;2022-07-25T09:04:08;29.70;99.90
56374;DHT22;58212;47.034;7.376;2022-07-25T09:06:46;29.90;99.90
56374;DHT22;58212;47.034;7.376;2022-07-25T09:09:14;29.70;99.90
56374;DHT22;58212;47.034;7.376;2022-07-25T09:11:42;29.50;99.90
56374;DHT22;58212;47.034;7.376;2022-07-25T09:14:11;29.40;99.90
56374;DHT22;58212;47.034;7.376;2022-07-25T09:16:40;29.50;99.90
56374;DHT22;58212;47.034;7.376;2022-07-25T09:19:12;29.40;99.90
56374;DHT22;58212;47.034;7.376;2022-07-25T09:21:42;29.30;99.90
56374;DHT22;58212;47.034;7.376;2022-07-25T09:24:11;29.40;99.90
56374;DHT22;58212;47.034;7.376;2022-07-25T09:26:42;29.50;99.90
56374;DHT22;58212;47.034;7.376;2022-07-25T09:29:16;29.70;99.90
56374;DHT22;58212;47.034;7.376;2022-07-25T09:31:43;29.80;99.90
56374;DHT22;58212;47.034;7.376;2022-07-25T09:34:10;29.70;99.90
56374;DHT22;58212;47.034;7.376;2022-07-25T09:36:38;29.60;99.90
56374;DHT22;58212;47.034;7.376;2022-07-25T09:39:17;29.40;99.90
56374;DHT22;58212;47.034;7.376;2022-07-25T09:41:45;29.80;99.90
56374;DHT22;58212;47.034;7.376;2022-07-25T09:44:18;30.00;99.90
56374;DHT22;58212;47.034;7.376;2022-07-25T09:46:48;30.50;99.90
56374;DHT22;58212;47.034;7.376;2022-07-25T09:49:15;30.50;99.90
56374;DHT22;58212;47.034;7.376;2022-07-25T09:51:44;30.40;99.90
56374;DHT22;58212;47.034;7.376;2022-07-25T09:54:12;30.80;99.90
56374;DHT22;58212;47.034;7.376;2022-07-25T09:56:41;30.70;99.90
56374;DHT22;58212;47.034;7.376;2022-07-25T09:59:09;30.70;99.90
56374;DHT22;58212;47.034;7.376;2022-07-25T10:01:41;31.10;99.90
56374;DHT22;58212;47.034;7.376;2022-07-25T10:04:17;31.00;99.90
56374;DHT22;58212;47.034;7.376;2022-07-25T10:06:49;31.10;99.90
56374;DHT22;58212;47.034;7.376;2022-07-25T10:09:18;31.30;99.90
56374;DHT22;58212;47.034;7.376;2022-07-25T10:12:03;31.30;99.90
56374;DHT22;58212;47.034;7.376;2022-07-25T10:14:30;31.20;99.90
56374;DHT22;58212;47.034;7.376;2022-07-25T10:17:01;31.60;99.90
56374;DHT22;58212;47.034;7.376;2022-07-25T10:19:39;31.60;99.90
56374;DHT22;58212;47.034;7.376;2022-07-25T10:22:09;31.50;99.90
56374;DHT22;58212;47.034;7.376;2022-07-25T10:24:37;31.60;99.90
56374;DHT22;58212;47.034;7.376;2022-07-25T10:27:09;31.70;99.70
56374;DHT22;58212;47.034;7.376;2022-07-25T10:29:41;31.90;99.90
56374;DHT22;58212;47.034;7.376;2022-07-25T10:32:09;31.90;98.70
56374;DHT22;58212;47.034;7.376;2022-07-25T10:34:38;32.10;96.80
56374;DHT22;58212;47.034;7.376;2022-07-25T10:37:11;32.10;96.90
56374;DHT22;58212;47.034;7.376;2022-07-25T10:39:40;32.10;99.70
56374;DHT22;58212;47.034;7.376;2022-07-25T10:42:15;32.10;97.80
56374;DHT22;58212;47.034;7.376;2022-07-25T10:44:43;32.50;96.80
56374;DHT22;58212;47.034;7.376;2022-07-25T10:47:12;32.70;96.40
56374;DHT22;58212;47.034;7.376;2022-07-25T10:49:42;32.40;94.60
56374;DHT22;58212;47.034;7.376;2022-07-25T10:52:14;32.50;94.60
56374;DHT22;58212;47.034;7.376;2022-07-25T10:54:52;32.70;94.50
56374;DHT22;58212;47.034;7.376;2022-07-25T10:57:21;32.70;95.30
56374;DHT22;58212;47.034;7.376;2022-07-25T10:59:48;32.80;96.20
56374;DHT22;58212;47.034;7.376;2022-07-25T11:02:16;32.90;95.50
56374;DHT22;58212;47.034;7.376;2022-07-25T11:04:56;32.80;95.50
56374;DHT22;58212;47.034;7.376;2022-07-25T11:07:24;32.80;96.00
56374;DHT22;58212;47.034;7.376;2022-07-25T11:09:56;32.70;95.90
56374;DHT22;58212;47.034;7.376;2022-07-25T11:12:25;32.10;96.40
56374;DHT22;58212;47.034;7.376;2022-07-25T11:14:56;32.00;96.50
56374;DHT22;58212;47.034;7.376;2022-07-25T11:17:25;32.10;98.10
56374;DHT22;58212;47.034;7.376;2022-07-25T11:19:57;32.00;96.80
56374;DHT22;58212;47.034;7.376;2022-07-25T11:22:25;31.70;98.50
56374;DHT22;58212;47.034;7.376;2022-07-25T11:24:53;31.80;94.70
56374;DHT22;58212;47.034;7.376;2022-07-25T11:27:25;31.80;97.60
56374;DHT22;58212;47.034;7.376;2022-07-25T11:30:03;31.80;97.00
56374;DHT22;58212;47.034;7.376;2022-07-25T11:32:37;31.80;98.60
56374;DHT22;58212;47.034;7.376;2022-07-25T11:35:05;31.90;98.80
56374;DHT22;58212;47.034;7.376;2022-07-25T11:37:35;31.90;97.80
56374;DHT22;58212;47.034;7.376;2022-07-25T11:40:06;32.00;94.80
56374;DHT22;58212;47.034;7.376;2022-07-25T11:42:40;32.20;92.60
56374;DHT22;58212;47.034;7.376;2022-07-25T11:45:21;32.50;91.90
56374;DHT22;58212;47.034;7.376;2022-07-25T11:48:00;32.80;91.10
56374;DHT22;58212;47.034;7.376;2022-07-25T11:50:29;32.90;91.30
56374;DHT22;58212;47.034;7.376;2022-07-25T11:52:59;33.10;90.00
56374;DHT22;58212;47.034;7.376;2022-07-25T11:55:32;33.00;90.80
56374;DHT22;58212;47.034;7.376;2022-07-25T11:58:05;33.30;90.40
56374;DHT22;58212;47.034;7.376;2022-07-25T12:00:34;33.20;90.70
56374;DHT22;58212;47.034;7.376;2022-07-25T12:03:07;33.40;91.60
56374;DHT22;58212;47.034;7.376;2022-07-25T12:05:34;33.60;91.80
56374;DHT22;58212;47.034;7.376;2022-07-25T12:08:08;33.60;88.20
56374;DHT22;58212;47.034;7.376;2022-07-25T12:10:36;33.70;91.50
56374;DHT22;58212;47.034;7.376;2022-07-25T12:13:05;33.90;90.00
56374;DHT22;58212;47.034;7.376;2022-07-25T12:15:36;33.90;87.00
56374;DHT22;58212;47.034;7.376;2022-07-25T12:18:05;34.10;90.00
56374;DHT22;58212;47.034;7.376;2022-07-25T12:20:38;33.60;89.00
56374;DHT22;58212;47.034;7.376;2022-07-25T12:23:06;33.40;90.90
56374;DHT22;58212;47.034;7.376;2022-07-25T12:25:36;33.20;87.20
56374;DHT22;58212;47.034;7.376;2022-07-25T12:28:07;33.00;90.80
56374;DHT22;58212;47.034;7.376;2022-07-25T12:30:36;32.80;91.80
56374;DHT22;58212;47.034;7.376;2022-07-25T12:33:04;32.70;93.00
56374;DHT22;58212;47.034;7.376;2022-07-25T12:35:32;32.80;92.40
56374;DHT22;58212;47.034;7.376;2022-07-25T12:38:02;33.20;92.00
56374;DHT22;58212;47.034;7.376;2022-07-25T12:40:29;33.10;91.80
56374;DHT22;58212;47.034;7.376;2022-07-25T12:42:56;32.90;91.40
56374;DHT22;58212;47.034;7.376;2022-07-25T12:45:25;33.00;91.80
56374;DHT22;58212;47.034;7.376;2022-07-25T12:47:53;33.30;91.70
56374;DHT22;58212;47.034;7.376;2022-07-25T12:50:20;33.40;92.00
56374;DHT22;58212;47.034;7.376;2022-07-25T12:52:50;33.40;91.00
56374;DHT22;58212;47.034;7.376;2022-07-25T12:55:18;33.20;89.50
56374;DHT22;58212;47.034;7.376;2022-07-25T12:57:45;33.00;91.90
56374;DHT22;58212;47.034;7.376;2022-07-25T13:00:16;33.60;90.90
56374;DHT22;58212;47.034;7.376;2022-07-25T13:02:45;33.40;91.00
56374;DHT22;58212;47.034;7.376;2022-07-25T13:05:15;33.20;86.30
56374;DHT22;58212;47.034;7.376;2022-07-25T13:07:42;32.90;90.90
56374;DHT22;58212;47.034;7.376;2022-07-25T13:10:10;32.60;91.60
56374;DHT22;58212;47.034;7.376;2022-07-25T13:12:38;32.60;93.40
56374;DHT22;58212;47.034;7.376;2022-07-25T13:15:06;32.10;92.50
56374;DHT22;58212;47.034;7.376;2022-07-25T13:17:34;32.30;92.70
56374;DHT22;58212;47.034;7.376;2022-07-25T13:20:04;32.50;93.40
56374;DHT22;58212;47.034;7.376;2022-07-25T13:22:32;32.60;92.60
56374;DHT22;58212;47.034;7.376;2022-07-25T13:25:01;33.00;88.40
56374;DHT22;58212;47.034;7.376;2022-07-25T13:27:30;33.10;90.60
56374;DHT22;58212;47.034;7.376;2022-07-25T13:29:58;33.40;86.60
56374;DHT22;58212;47.034;7.376;2022-07-25T13:32:27;33.40;88.40
56374;DHT22;58212;47.034;7.376;2022-07-25T13:34:57;33.20;89.60
56374;DHT22;58212;47.034;7.376;2022-07-25T13:37:26;32.80;91.60
56374;DHT22;58212;47.034;7.376;2022-07-25T13:39:55;32.60;90.40
56374;DHT22;58212;47.034;7.376;2022-07-25T13:42:22;32.60;91.30
56374;DHT22;58212;47.034;7.376;2022-07-25T13:44:51;32.70;92.80
56374;DHT22;58212;47.034;7.376;2022-07-25T13:47:18;32.90;92.10
56374;DHT22;58212;47.034;7.376;2022-07-25T13:49:46;33.10;92.90
56374;DHT22;58212;47.034;7.376;2022-07-25T13:52:15;33.20;89.50
56374;DHT22;58212;47.034;7.376;2022-07-25T13:54:45;33.40;92.70
56374;DHT22;58212;47.034;7.376;2022-07-25T13:57:13;33.10;92.90
56374;DHT22;58212;47.034;7.376;2022-07-25T13:59:41;33.20;92.50
56374;DHT22;58212;47.034;7.376;2022-07-25T14:02:09;32.80;93.50
56374;DHT22;58212;47.034;7.376;2022-07-25T14:04:38;32.90;94.00
56374;DHT22;58212;47.034;7.376;2022-07-25T14:07:06;32.90;93.70
56374;DHT22;58212;47.034;7.376;2022-07-25T14:09:38;33.10;91.30
56374;DHT22;58212;47.034;7.376;2022-07-25T14:12:07;33.10;92.90
56374;DHT22;58212;47.034;7.376;2022-07-25T14:14:35;33.00;92.40
56374;DHT22;58212;47.034;7.376;2022-07-25T14:17:06;32.90;91.70
56374;DHT22;58212;47.034;7.376;2022-07-25T14:19:35;32.60;90.70
56374;DHT22;58212;47.034;7.376;2022-07-25T14:22:03;33.10;91.90
56374;DHT22;58212;47.034;7.376;2022-07-25T14:24:30;32.90;93.60
56374;DHT22;58212;47.034;7.376;2022-07-25T14:26:58;33.00;93.50
56374;DHT22;58212;47.034;7.376;2022-07-25T14:29:27;32.90;93.20
56374;DHT22;58212;47.034;7.376;2022-07-25T14:31:55;32.90;92.60
56374;DHT22;58212;47.034;7.376;2022-07-25T14:34:23;32.70;93.40
56374;DHT22;58212;47.034;7.376;2022-07-25T14:36:50;32.80;93.50
56374;DHT22;58212;47.034;7.376;2022-07-25T14:39:17;32.80;93.30
56374;DHT22;58212;47.034;7.376;2022-07-25T14:41:46;32.50;93.10
56374;DHT22;58212;47.034;7.376;2022-07-25T14:44:13;32.70;92.30
56374;DHT22;58212;47.034;7.376;2022-07-25T14:46:42;32.90;93.00
56374;DHT22;58212;47.034;7.376;2022-07-25T14:49:11;32.90;91.30
56374;DHT22;58212;47.034;7.376;2022-07-25T14:51:39;32.80;92.50
56374;DHT22;58212;47.034;7.376;2022-07-25T14:54:09;32.40;93.20
56374;DHT22;58212;47.034;7.376;2022-07-25T14:56:36;32.30;93.00
56374;DHT22;58212;47.034;7.376;2022-07-25T14:59:05;32.40;93.30
56374;DHT22;58212;47.034;7.376;2022-07-25T15:01:33;32.30;93.80
56374;DHT22;58212;47.034;7.376;2022-07-25T15:04:05;32.30;93.70
56374;DHT22;58212;47.034;7.376;2022-07-25T15:06:33;32.10;93.80
56374;DHT22;58212;47.034;7.376;2022-07-25T15:09:01;32.10;93.80
56374;DHT22;58212;47.034;7.376;2022-07-25T15:11:29;32.30;92.50
56374;DHT22;58212;47.034;7.376;2022-07-25T15:13:58;32.30;95.00
56374;DHT22;58212;47.034;7.376;2022-07-25T15:16:26;32.30;94.10
56374;DHT22;58212;47.034;7.376;2022-07-25T15:18:56;32.10;95.50
56374;DHT22;58212;47.034;7.376;2022-07-25T15:21:28;32.10;94.80
56374;DHT22;58212;47.034;7.376;2022-07-25T15:23:55;31.90;96.50
56374;DHT22;58212;47.034;7.376;2022-07-25T15:26:28;31.90;96.30
56374;DHT22;58212;47.034;7.376;2022-07-25T15:28:56;32.00;95.60
56374;DHT22;58212;47.034;7.376;2022-07-25T15:31:31;31.90;95.60
56374;DHT22;58212;47.034;7.376;2022-07-25T15:33:59;31.70;96.10
56374;DHT22;58212;47.034;7.376;2022-07-25T15:36:31;31.50;96.60
56374;DHT22;58212;47.034;7.376;2022-07-25T15:38:58;31.20;97.10